TimeEDT,TemperatureF,Dew PointF,Humidity,Sea Level PressureIn,VisibilityMPH,Wind Direction,Wind SpeedMPH,Gust SpeedMPH,PrecipitationIn,Events,Conditions,WindDirDegrees,DateUTC
12:15 AM,42.8,39.2,87,29.81,10.0,SW,4.6,-,N/A,,Scattered Clouds,220,2012-04-24 04:15:00
12:35 AM,42.8,39.2,87,29.81,10.0,SSW,3.5,-,N/A,,Clear,210,2012-04-24 04:35:00
12:55 AM,41.0,37.4,87,29.80,10.0,SSW,3.5,-,N/A,,Clear,210,2012-04-24 04:55:00
1:15 AM,41.0,37.4,87,29.80,10.0,SW,5.8,-,N/A,,Scattered Clouds,230,2012-04-24 05:15:00
1:35 AM,41.0,37.4,87,29.80,10.0,WSW,4.6,-,N/A,,Scattered Clouds,240,2012-04-24 05:35:00
1:55 AM,42.8,37.4,81,29.80,10.0,WSW,4.6,-,N/A,,Clear,240,2012-04-24 05:55:00
2:15 AM,41.0,35.6,81,29.79,10.0,SW,3.5,-,N/A,,Clear,230,2012-04-24 06:15:00
2:35 AM,41.0,35.6,81,29.79,10.0,WSW,4.6,-,N/A,,Clear,240,2012-04-24 06:35:00
2:55 AM,41.0,35.6,81,29.79,10.0,WSW,6.9,-,N/A,,Clear,240,2012-04-24 06:55:00
3:15 AM,41.0,35.6,81,29.80,10.0,WSW,5.8,-,N/A,,Clear,240,2012-04-24 07:15:00
3:35 AM,41.0,37.4,87,29.80,10.0,WSW,6.9,-,N/A,,Clear,240,2012-04-24 07:35:00
3:55 AM,41.0,37.4,87,29.80,10.0,WSW,5.8,-,N/A,,Clear,250,2012-04-24 07:55:00
4:15 AM,41.0,35.6,81,29.80,10.0,WSW,4.6,-,N/A,,Clear,250,2012-04-24 08:15:00
4:35 AM,39.2,35.6,87,29.80,10.0,WSW,4.6,-,N/A,,Clear,250,2012-04-24 08:35:00
5:15 AM,37.4,35.6,93,29.81,10.0,WSW,4.6,-,N/A,,Clear,250,2012-04-24 09:15:00
5:35 AM,37.4,35.6,93,29.81,10.0,WSW,4.6,-,N/A,,Clear,250,2012-04-24 09:35:00
5:55 AM,37.4,33.8,87,29.81,10.0,WSW,5.8,-,N/A,,Clear,250,2012-04-24 09:55:00
6:35 AM,39.2,35.6,87,29.82,10.0,West,5.8,-,N/A,,Clear,260,2012-04-24 10:35:00
6:55 AM,39.2,35.6,87,29.83,10.0,WSW,5.8,-,N/A,,Clear,250,2012-04-24 10:55:00
7:15 AM,41.0,37.4,87,29.84,10.0,West,5.8,-,N/A,,Clear,260,2012-04-24 11:15:00
7:35 AM,42.8,37.4,81,29.84,10.0,West,6.9,-,N/A,,Clear,260,2012-04-24 11:35:00
7:55 AM,44.6,37.4,76,29.85,10.0,West,6.9,-,N/A,,Clear,260,2012-04-24 11:55:00
8:15 AM,46.4,37.4,71,29.85,10.0,West,6.9,-,N/A,,Clear,270,2012-04-24 12:15:00
8:35 AM,48.2,37.4,66,29.86,10.0,West,9.2,-,N/A,,Clear,280,2012-04-24 12:35:00
8:55 AM,50.0,35.6,58,29.86,10.0,West,6.9,-,N/A,,Clear,280,2012-04-24 12:55:00
9:15 AM,51.8,35.6,54,29.87,10.0,West,11.5,-,N/A,,Clear,270,2012-04-24 13:15:00
9:35 AM,53.6,35.6,51,29.87,10.0,West,9.2,-,N/A,,Clear,280,2012-04-24 13:35:00
10:15 AM,59.0,32.0,36,29.87,10.0,West,10.4,-,N/A,,Clear,270,2012-04-24 14:15:00
10:35 AM,59.0,30.2,34,29.87,10.0,West,12.7,18.4,N/A,,Clear,260,2012-04-24 14:35:00
10:55 AM,60.8,30.2,31,29.87,10.0,West,11.5,-,N/A,,Clear,280,2012-04-24 14:55:00
11:15 AM,62.6,30.2,30,29.87,10.0,West,12.7,18.4,N/A,,Clear,270,2012-04-24 15:15:00
11:35 AM,62.6,28.4,27,29.86,10.0,WNW,16.1,19.6,N/A,,Scattered Clouds,300,2012-04-24 15:35:00
11:55 AM,60.8,26.6,27,29.86,10.0,WNW,13.8,20.7,N/A,,Scattered Clouds,290,2012-04-24 15:55:00
12:15 PM,62.6,26.6,26,29.86,10.0,WNW,15.0,25.3,N/A,,Scattered Clouds,290,2012-04-24 16:15:00
12:35 PM,64.4,26.6,24,29.85,10.0,West,16.1,25.3,N/A,,Scattered Clouds,260,2012-04-24 16:35:00
12:55 PM,62.6,24.8,24,29.84,10.0,WSW,15.0,25.3,N/A,,Scattered Clouds,250,2012-04-24 16:55:00
1:15 PM,64.4,24.8,22,29.83,10.0,West,13.8,21.9,N/A,,Scattered Clouds,270,2012-04-24 17:15:00
1:35 PM,64.4,23.0,21,29.83,10.0,West,15.0,27.6,N/A,,Scattered Clouds,270,2012-04-24 17:35:00
1:55 PM,64.4,23.0,21,29.82,10.0,West,10.4,21.9,N/A,,Scattered Clouds,280,2012-04-24 17:55:00
2:15 PM,64.4,24.8,22,29.81,10.0,WSW,15.0,24.2,N/A,,Clear,250,2012-04-24 18:15:00
2:35 PM,66.2,24.8,21,29.82,10.0,West,18.4,26.5,N/A,,Clear,260,2012-04-24 18:35:00
2:55 PM,66.2,26.6,23,29.81,10.0,West,17.3,24.2,N/A,,Scattered Clouds,260,2012-04-24 18:55:00
3:15 PM,64.4,26.6,24,29.81,10.0,WNW,13.8,21.9,N/A,,Scattered Clouds,300,2012-04-24 19:15:00
3:35 PM,68.0,26.6,21,29.80,10.0,WSW,17.3,23.0,N/A,,Scattered Clouds,250,2012-04-24 19:35:00
3:55 PM,64.4,26.6,24,29.80,10.0,WNW,12.7,23.0,N/A,,Scattered Clouds,300,2012-04-24 19:55:00
4:15 PM,64.4,28.4,26,29.80,10.0,West,13.8,24.2,N/A,,Scattered Clouds,280,2012-04-24 20:15:00
4:35 PM,64.4,28.4,26,29.80,10.0,West,17.3,25.3,N/A,,Mostly Cloudy,280,2012-04-24 20:35:00
4:55 PM,66.2,24.8,21,29.80,10.0,WNW,21.9,31.1,N/A,,Scattered Clouds,290,2012-04-24 20:55:00
5:15 PM,66.2,23.0,19,29.81,10.0,West,18.4,29.9,N/A,,Clear,280,2012-04-24 21:15:00
5:35 PM,66.2,24.8,21,29.81,10.0,West,12.7,23.0,N/A,,Clear,280,2012-04-24 21:35:00
5:55 PM,66.2,24.8,21,29.81,10.0,West,18.4,23.0,N/A,,Scattered Clouds,280,2012-04-24 21:55:00
6:15 PM,64.4,26.6,24,29.81,10.0,WNW,13.8,21.9,N/A,,Scattered Clouds,290,2012-04-24 22:15:00
6:35 PM,64.4,26.6,24,29.81,10.0,West,11.5,19.6,N/A,,Scattered Clouds,280,2012-04-24 22:35:00
6:55 PM,64.4,28.4,26,29.82,10.0,West,12.7,18.4,N/A,,Scattered Clouds,280,2012-04-24 22:55:00
7:15 PM,62.6,30.2,30,29.82,10.0,West,5.8,-,N/A,,Clear,260,2012-04-24 23:15:00
7:35 PM,60.8,32.0,34,29.82,10.0,West,3.5,-,N/A,,Clear,260,2012-04-24 23:35:00
7:55 PM,59.0,35.6,42,29.83,10.0,SW,3.5,-,N/A,,Clear,230,2012-04-24 23:55:00
8:15 PM,55.4,37.4,51,29.83,10.0,SW,4.6,-,N/A,,Scattered Clouds,220,2012-04-25 00:15:00
8:35 PM,53.6,39.2,58,29.83,10.0,SW,4.6,-,N/A,,Scattered Clouds,230,2012-04-25 00:35:00
8:55 PM,51.8,41.0,67,29.84,10.0,SSW,3.5,-,N/A,,Mostly Cloudy,200,2012-04-25 00:55:00
9:15 PM,55.4,35.6,47,29.87,10.0,North,10.4,29.9,N/A,,Mostly Cloudy,360,2012-04-25 01:15:00
9:35 PM,55.4,33.8,44,29.87,10.0,Calm,Calm,-,N/A,,Scattered Clouds,0,2012-04-25 01:35:00
9:55 PM,51.8,37.4,58,29.88,10.0,Calm,Calm,-,N/A,,Clear,0,2012-04-25 01:55:00
10:15 PM,51.8,37.4,58,29.88,10.0,Calm,Calm,-,N/A,,Clear,0,2012-04-25 02:15:00
10:35 PM,50.0,37.4,62,29.89,10.0,Calm,Calm,-,N/A,,Clear,0,2012-04-25 02:35:00
10:55 PM,46.4,37.4,71,29.89,10.0,Calm,Calm,-,N/A,,Clear,0,2012-04-25 02:55:00
11:15 PM,44.6,39.2,81,29.89,10.0,Calm,Calm,-,N/A,,Clear,0,2012-04-25 03:15:00
11:35 PM,46.4,39.2,76,29.89,10.0,Calm,Calm,-,N/A,,Clear,0,2012-04-25 03:35:00
11:55 PM,46.4,37.4,71,29.89,10.0,Calm,Calm,-,N/A,,Clear,0,2012-04-25 03:55:00